Time;durP1;ratioP1;P1;durP2;ratioP2;P2;SDS_P1;SDS_P2;PMS_P1;PMS_P2;Temp;Humidity;BMP_temperature;BMP_pressure;BME280_temperature;BME280_humidity;BME280_pressure;Samples;Min_cycle;Max_cycle;Signal;HPM_P1;HPM_P2
2023/12/22 14:15:52;;;;;;;;;;;;;;;4.83;100.00;95483.44;5072851;27;19929;-84
2023/12/22 14:18:18;;;;;;;;;;;;;;;10.13;54.55;95463.97;5068033;28;19924;-82
2023/12/22 14:20:45;;;;;;;;;;;;;;;12.64;45.53;95467.63;5075255;28;19925;-82
2023/12/22 14:23:16;;;;;;;;;;;;;;;15.10;36.41;95469.44;5069060;28;19982;-82
2023/12/22 14:25:42;;;;;;;;;;;;;;;15.83;33.28;95459.41;5074447;28;19927;-82
2023/12/22 14:28:08;;;;;;;;;;;;;;;15.69;32.77;95452.34;5071892;28;20399;-82
2023/12/22 14:30:34;;;;;;;;;;;;;;;15.22;38.83;95457.66;5073168;28;19932;-82
2023/12/22 14:33:00;;;;;;;;;;;;;;;16.24;37.00;95456.50;5075368;28;20006;-82
2023/12/22 14:35:26;;;;;;;;;;;;;;;15.90;31.72;95456.44;5069158;28;20061;-83
2023/12/22 14:37:52;;;;;;;;;;;;;;;15.30;32.92;95472.03;5070960;28;20059;-83
2023/12/22 14:40:18;;;;;;;;;;;;;;;16.66;32.13;95445.28;5087271;28;19999;-84
2023/12/22 14:42:44;;;;;;;;;;;;;;;18.16;27.83;95467.81;5106262;28;19931;-83
2023/12/22 14:45:10;;;;;;;;;;;;;;;15.79;38.02;95467.84;5075423;28;19924;-83
2023/12/22 14:47:36;;;;;;;;;;;;;;;16.56;29.56;95470.13;5068496;28;19928;-81
2023/12/22 14:50:05;;;;;;;;;;;;;;;17.99;27.42;95467.31;5074128;28;19920;-82
2023/12/22 14:52:34;;;;;;;;;;;;;;;17.78;32.13;95468.88;5072276;28;19968;-83
2023/12/22 14:55:00;;;;;;;;;;;;;;;17.45;29.97;95472.53;5071442;28;19925;-84
2023/12/22 14:57:28;;;;;;;;;;;;;;;18.15;26.72;95466.28;5070143;28;20403;-85
2023/12/22 14:59:54;;;;;;;;;;;;;;;16.60;30.53;95467.22;5071373;28;20015;-84
2023/12/22 15:02:21;;;;;;;;;;;;;;;17.55;35.01;95465.84;5068618;28;19940;-85
2023/12/22 15:04:47;;;;;;;;;;;;;;;18.06;26.66;95460.69;5069806;28;19928;-83
2023/12/22 15:07:17;;;;;;;;;;;;;;;19.35;24.15;95448.06;5068835;28;19921;-83
2023/12/22 15:09:44;;;;;;;;;;;;;;;16.88;32.11;95471.78;5075371;28;19969;-84
2023/12/22 15:12:11;;;;;;;;;;;;;;;17.14;27.70;95470.47;5073891;28;20399;-83
2023/12/22 15:14:37;;;;;;;;;;;;;;;18.13;30.53;95477.09;5081927;28;19951;-84
2023/12/22 15:17:03;;;;;;;;;;;;;;;19.10;24.07;95457.53;5093989;28;19967;-83
2023/12/22 15:19:29;;;;;;;;;;;;;;;18.58;25.74;95458.56;5090977;28;19932;-84
2023/12/22 15:21:55;;;;;;;;;;;;;;;17.50;26.25;95458.84;5090450;28;19921;-83
2023/12/22 15:24:22;;;;;;;;;;;;;;;18.15;25.17;95474.63;5091548;28;20010;-83
2023/12/22 15:26:48;;;;;;;;;;;;;;;19.23;24.03;95472.03;5077167;28;19928;-84
2023/12/22 15:29:14;;;;;;;;;;;;;;;19.74;22.73;95466.56;5074603;28;19924;-84
2023/12/22 15:31:40;;;;;;;;;;;;;;;17.85;24.71;95476.19;5076669;28;20475;-83
2023/12/22 15:34:06;;;;;;;;;;;;;;;19.69;22.66;95469.25;5077894;28;19927;-83
2023/12/22 15:36:33;;;;;;;;;;;;;;;19.13;23.56;95470.50;5076005;28;19928;-84
2023/12/22 15:38:59;;;;;;;;;;;;;;;18.40;23.92;95468.84;5076530;28;19926;-83
2023/12/22 15:41:29;;;;;;;;;;;;;;;17.66;24.68;95438.47;5077207;28;19920;-84
2023/12/22 15:43:55;;;;;;;;;;;;;;;16.75;28.92;95443.38;5076881;28;19939;-83
2023/12/22 15:46:22;;;;;;;;;;;;;;;16.31;30.85;95452.75;5080413;28;19928;-83
2023/12/22 15:48:48;;;;;;;;;;;;;;;16.66;26.17;95461.91;5078997;28;19921;-83
2023/12/22 15:51:14;;;;;;;;;;;;;;;18.04;24.01;95461.13;5077534;28;19924;-83
2023/12/22 15:53:43;;;;;;;;;;;;;;;18.45;23.54;95454.34;5078857;28;19927;-82
2023/12/22 15:56:11;;;;;;;;;;;;;;;19.15;22.83;95450.56;5077199;28;19927;-83
2023/12/22 15:58:37;;;;;;;;;;;;;;;18.94;23.07;95457.06;5078412;28;19929;-83
2023/12/22 16:01:04;;;;;;;;;;;;;;;20.00;21.66;95450.25;5078610;28;19936;-86
2023/12/22 16:03:30;;;;;;;;;;;;;;;19.07;25.16;95450.09;5075107;28;19924;-82
2023/12/22 16:05:56;;;;;;;;;;;;;;;19.39;22.82;95451.53;5075349;28;19965;-84
2023/12/22 16:08:22;;;;;;;;;;;;;;;20.51;21.66;95456.53;5077007;28;20418;-82
2023/12/22 16:10:48;;;;;;;;;;;;;;;20.08;22.58;95461.84;5075423;28;19928;-84
2023/12/22 16:13:14;;;;;;;;;;;;;;;20.39;21.96;95460.34;5077811;28;19928;-84
2023/12/22 16:15:41;;;;;;;;;;;;;;;19.78;22.48;95458.84;5081719;28;19968;-83
2023/12/22 16:18:08;;;;;;;;;;;;;;;19.71;23.52;95456.41;5076729;28;19928;-83
2023/12/22 16:20:34;;;;;;;;;;;;;;;19.58;22.23;95463.41;5078243;28;19955;-83
2023/12/22 16:23:04;;;;;;;;;;;;;;;19.47;24.33;95458.28;5078245;28;19920;-85
2023/12/22 16:25:30;;;;;;;;;;;;;;;19.77;22.04;95454.50;5078383;28;19956;-83
2023/12/22 16:27:56;;;;;;;;;;;;;;;19.31;22.46;95470.50;5075524;28;20014;-83
2023/12/22 16:30:22;;;;;;;;;;;;;;;19.44;22.28;95472.38;5077833;28;20425;-84
2023/12/22 16:32:49;;;;;;;;;;;;;;;19.05;23.22;95471.28;5078700;28;19950;-84
2023/12/22 16:35:15;;;;;;;;;;;;;;;20.34;21.81;95469.34;5073557;28;19925;-84
2023/12/22 16:37:43;;;;;;;;;;;;;;;18.99;28.41;95476.69;5070640;28;19971;-85
2023/12/22 16:40:10;;;;;;;;;;;;;;;18.27;24.36;95493.19;5072018;28;19920;-84
2023/12/22 16:42:38;;;;;;;;;;;;;;;18.54;24.29;95479.41;5076618;28;19956;-85
2023/12/22 16:45:05;;;;;;;;;;;;;;;19.17;23.01;95487.03;5076374;28;19928;-84
2023/12/22 16:47:31;;;;;;;;;;;;;;;18.67;24.20;95490.41;5076490;28;19928;-85
2023/12/22 16:49:57;;;;;;;;;;;;;;;19.95;22.36;95481.53;5079049;28;20015;-84
2023/12/22 16:52:23;;;;;;;;;;;;;;;19.19;22.38;95498.47;5072458;28;20011;-86
2023/12/22 16:54:49;;;;;;;;;;;;;;;19.11;22.61;95488.91;5078305;28;19951;-86
2023/12/22 16:57:15;;;;;;;;;;;;;;;19.26;23.64;95495.38;5073111;28;19966;-87
2023/12/22 16:59:41;;;;;;;;;;;;;;;19.09;23.22;95489.34;5075552;28;19928;-86
2023/12/22 17:02:07;;;;;;;;;;;;;;;19.13;23.11;95491.97;5076332;28;20380;-85
2023/12/22 17:04:33;;;;;;;;;;;;;;;18.84;23.32;95481.28;5075526;28;19966;-85
2023/12/22 17:06:59;;;;;;;;;;;;;;;18.56;24.54;95477.69;5077575;28;19951;-86
2023/12/22 17:09:25;;;;;;;;;;;;;;;18.11;24.70;95494.19;5074539;28;19927;-86
2023/12/22 17:11:51;;;;;;;;;;;;;;;19.64;22.45;95487.34;5076169;28;19928;-87
2023/12/22 17:14:17;;;;;;;;;;;;;;;19.69;21.87;95485.94;5077162;28;19993;-83
2023/12/22 17:16:44;;;;;;;;;;;;;;;19.72;21.80;95471.84;5071433;28;19920;-83
2023/12/22 17:19:10;;;;;;;;;;;;;;;20.70;21.26;95475.97;5078721;28;19930;-83
2023/12/22 17:21:39;;;;;;;;;;;;;;;18.89;23.28;95482.69;5077501;28;20265;-85
2023/12/22 17:24:05;;;;;;;;;;;;;;;19.66;22.52;95498.00;5078276;28;19924;-83
2023/12/22 17:26:31;;;;;;;;;;;;;;;17.77;24.73;95505.44;5073745;28;20376;-83
2023/12/22 17:28:59;;;;;;;;;;;;;;;17.75;25.04;95496.78;5073189;28;19946;-83
2023/12/22 17:31:25;;;;;;;;;;;;;;;17.11;25.76;95498.31;5073278;28;19924;-83
2023/12/22 17:33:50;;;;;;;;;;;;;;;17.00;26.80;95500.69;5074703;28;19944;-83
2023/12/22 17:36:18;;;;;;;;;;;;;;;17.04;26.31;95515.97;5073688;28;20013;-83
2023/12/22 17:38:44;;;;;;;;;;;;;;;17.24;26.54;95515.69;5073151;28;19928;-83
2023/12/22 17:41:10;;;;;;;;;;;;;;;18.33;24.50;95513.56;5078410;28;20449;-82
2023/12/22 17:43:36;;;;;;;;;;;;;;;17.92;25.14;95520.31;5076240;28;19963;-83
2023/12/22 17:46:02;;;;;;;;;;;;;;;16.47;28.33;95508.00;5077210;28;20383;-84
2023/12/22 17:48:28;;;;;;;;;;;;;;;17.04;26.20;95498.56;5070800;28;19920;-83
2023/12/22 17:50:54;;;;;;;;;;;;;;;17.02;26.93;95501.00;5075743;28;19931;-82
2023/12/22 17:53:24;;;;;;;;;;;;;;;16.40;30.36;95502.69;5075022;28;19920;-83
2023/12/22 17:55:50;;;;;;;;;;;;;;;16.75;26.67;95512.63;5070688;28;20013;-83
2023/12/22 17:58:17;;;;;;;;;;;;;;;16.91;26.06;95508.91;5075067;28;20276;-83
2023/12/22 18:00:44;;;;;;;;;;;;;;;16.51;29.19;95500.38;5077317;28;20010;-83
2023/12/22 18:03:10;;;;;;;;;;;;;;;16.97;26.70;95510.66;5074597;28;19966;-82
2023/12/22 18:05:36;;;;;;;;;;;;;;;17.28;25.63;95505.22;5074584;28;20457;-83
2023/12/22 18:08:02;;;;;;;;;;;;;;;16.09;29.78;95512.78;5071914;28;19971;-83
2023/12/22 18:10:28;;;;;;;;;;;;;;;16.44;28.99;95497.81;5076737;28;19924;-83
2023/12/22 18:12:54;;;;;;;;;;;;;;;16.83;26.61;95504.81;5078043;28;19951;-83
2023/12/22 18:15:20;;;;;;;;;;;;;;;17.55;25.43;95499.88;5075590;28;19944;-84
2023/12/22 18:17:46;;;;;;;;;;;;;;;18.06;26.20;95516.22;5075372;28;19927;-83
2023/12/22 18:20:12;;;;;;;;;;;;;;;17.66;27.60;95514.16;5076720;28;19947;-83
2023/12/22 18:22:38;;;;;;;;;;;;;;;17.20;28.57;95515.00;5069210;28;19920;-83
2023/12/22 18:25:04;;;;;;;;;;;;;;;15.44;31.13;95523.38;5070802;28;20139;-84
2023/12/22 18:27:30;;;;;;;;;;;;;;;15.05;30.17;95514.16;5072994;28;19921;-83
2023/12/22 18:29:56;;;;;;;;;;;;;;;17.16;26.95;95522.69;5073922;28;20446;-84
2023/12/22 18:32:22;;;;;;;;;;;;;;;17.46;31.88;95518.44;5075222;28;19921;-83
2023/12/22 18:34:48;;;;;;;;;;;;;;;18.82;25.80;95506.00;5076626;28;19920;-83
2023/12/22 18:37:14;;;;;;;;;;;;;;;19.79;24.63;95493.03;5075430;28;20041;-84
2023/12/22 18:39:41;;;;;;;;;;;;;;;19.24;24.26;95493.06;5073617;28;19974;-83
2023/12/22 18:42:07;;;;;;;;;;;;;;;18.39;26.75;95493.06;5074007;28;19925;-84
2023/12/22 18:44:33;;;;;;;;;;;;;;;18.26;25.33;95486.06;5071958;28;19986;-83
2023/12/22 18:46:59;;;;;;;;;;;;;;;17.74;27.11;95498.00;5075551;28;19916;-83
2023/12/22 18:49:25;;;;;;;;;;;;;;;17.24;31.42;95479.63;5073358;28;19938;-83
2023/12/22 18:51:51;;;;;;;;;;;;;;;18.30;25.32;95489.47;5073201;28;19924;-82
2023/12/22 18:54:17;;;;;;;;;;;;;;;18.26;25.41;95480.50;5074813;28;19924;-84
2023/12/22 18:56:43;;;;;;;;;;;;;;;16.87;29.56;95466.72;5076003;28;20261;-84
2023/12/22 18:59:09;;;;;;;;;;;;;;;17.10;26.53;95496.78;5075293;28;19943;-82
2023/12/22 19:01:35;;;;;;;;;;;;;;;17.86;26.49;95502.69;5075221;28;19924;-82
2023/12/22 19:04:01;;;;;;;;;;;;;;;17.69;26.39;95493.06;5077313;28;20451;-82
2023/12/22 19:06:27;;;;;;;;;;;;;;;16.78;27.08;95516.50;5078704;28;20020;-83
2023/12/22 19:08:53;;;;;;;;;;;;;;;17.71;25.81;95523.91;5076265;28;19923;-83
2023/12/22 19:11:19;;;;;;;;;;;;;;;17.98;24.74;95512.94;5078029;28;19931;-83
2023/12/22 19:13:45;;;;;;;;;;;;;;;19.27;23.30;95513.63;5077107;28;19933;-83
2023/12/22 19:16:11;;;;;;;;;;;;;;;17.21;26.37;95506.25;5076899;28;19931;-82
2023/12/22 19:18:37;;;;;;;;;;;;;;;17.42;26.36;95509.47;5075685;28;20376;-81
2023/12/22 19:21:03;;;;;;;;;;;;;;;17.18;27.56;95504.38;5077773;28;19920;-82
2023/12/22 19:23:29;;;;;;;;;;;;;;;16.83;29.28;95499.28;5076779;28;20073;-84
2023/12/22 19:25:55;;;;;;;;;;;;;;;16.08;27.97;95512.00;5094424;27;19934;-83
2023/12/22 19:28:22;;;;;;;;;;;;;;;16.28;28.02;95500.69;5098022;27;19999;-83
2023/12/22 19:30:51;;;;;;;;;;;;;;;15.73;32.53;95519.38;5099342;28;20007;-82
2023/12/22 19:33:18;;;;;;;;;;;;;;;16.34;27.05;95494.16;5082798;28;19924;-84
2023/12/22 19:35:44;;;;;;;;;;;;;;;15.30;28.33;95501.66;5095937;28;19990;-83
2023/12/22 19:38:10;;;;;;;;;;;;;;;14.26;32.19;95535.88;5102247;27;20038;-83
2023/12/22 19:40:36;;;;;;;;;;;;;;;15.46;27.93;95532.81;5095938;28;20061;-84
2023/12/22 19:43:03;;;;;;;;;;;;;;;16.29;27.62;95529.94;5099759;27;19924;-82
2023/12/22 19:45:29;;;;;;;;;;;;;;;17.07;25.79;95514.28;5097202;28;19924;-80
2023/12/22 19:47:55;;;;;;;;;;;;;;;17.14;27.62;95512.06;5100302;27;19994;-82
2023/12/22 19:50:21;;;;;;;;;;;;;;;17.42;27.48;95537.22;5086473;28;20282;-82
2023/12/22 19:52:47;;;;;;;;;;;;;;;17.96;24.87;95534.84;5098268;28;19966;-82
2023/12/22 19:55:13;;;;;;;;;;;;;;;19.41;23.14;95532.50;5094740;27;19996;-82
2023/12/22 19:57:40;;;;;;;;;;;;;;;19.66;23.21;95525.84;5095411;28;19964;-83
2023/12/22 20:00:06;;;;;;;;;;;;;;;19.89;23.56;95530.75;5079126;28;19916;-82
2023/12/22 20:02:33;;;;;;;;;;;;;;;20.13;23.40;95539.19;5097206;27;20006;-82
2023/12/22 20:04:59;;;;;;;;;;;;;;;18.57;27.13;95550.72;5096509;27;19961;-81
2023/12/22 20:07:25;;;;;;;;;;;;;;;18.10;26.64;95556.50;5096087;27;19920;-81
2023/12/22 20:09:51;;;;;;;;;;;;;;;17.53;27.31;95549.50;5094105;28;19931;-81
2023/12/22 20:12:17;;;;;;;;;;;;;;;18.55;25.74;95558.75;5097934;28;20383;-81
2023/12/22 20:14:43;;;;;;;;;;;;;;;19.54;24.25;95543.47;5098512;28;19931;-81
2023/12/22 20:17:10;;;;;;;;;;;;;;;18.76;26.31;95562.66;5095110;27;19935;-80
2023/12/22 20:19:36;;;;;;;;;;;;;;;18.63;25.04;95558.00;5099052;27;20030;-85
2023/12/22 20:22:04;;;;;;;;;;;;;;;17.92;25.97;95564.75;5078289;28;20447;-84
2023/12/22 20:24:30;;;;;;;;;;;;;;;17.38;27.27;95545.69;5096947;28;19920;-85
2023/12/22 20:26:56;;;;;;;;;;;;;;;17.62;26.35;95540.50;5097206;27;19924;-85
2023/12/22 20:29:22;;;;;;;;;;;;;;;18.84;24.81;95550.00;5098585;27;19972;-86
2023/12/22 20:31:48;;;;;;;;;;;;;;;18.80;24.77;95541.84;5096902;27;19981;-86
2023/12/22 20:34:15;;;;;;;;;;;;;;;18.09;26.19;95554.94;5098736;28;19968;-84
2023/12/22 20:36:43;;;;;;;;;;;;;;;19.62;25.06;95534.34;5097255;27;19946;-87
2023/12/22 20:39:09;;;;;;;;;;;;;;;19.08;24.67;95548.22;5096736;27;19934;-85
2023/12/22 20:41:35;;;;;;;;;;;;;;;19.89;25.29;95525.94;5095749;27;19928;-88
2023/12/22 20:44:01;;;;;;;;;;;;;;;17.65;26.72;95520.94;5095245;27;20412;-85
2023/12/22 20:46:27;;;;;;;;;;;;;;;18.88;24.26;95520.09;5095787;27;19931;-85
2023/12/22 20:48:53;;;;;;;;;;;;;;;18.97;23.71;95498.63;5096792;27;20384;-84
2023/12/22 20:51:20;;;;;;;;;;;;;;;19.04;23.82;95514.97;5095524;27;19924;-85
2023/12/22 20:53:46;;;;;;;;;;;;;;;17.40;26.53;95537.69;5097519;27;19959;-86
2023/12/22 20:56:16;;;;;;;;;;;;;;;16.84;28.32;95532.09;5097028;27;20045;-84
2023/12/22 20:58:42;;;;;;;;;;;;;;;17.98;25.03;95542.69;5103080;27;20351;-84
2023/12/22 21:01:09;;;;;;;;;;;;;;;17.55;26.28;95547.06;5096990;27;19919;-84
2023/12/22 21:03:35;;;;;;;;;;;;;;;16.14;28.99;95562.81;5098850;27;19943;-85
2023/12/22 21:06:07;;;;;;;;;;;;;;;18.10;25.25;95558.50;5100449;28;19919;-85
2023/12/22 21:08:33;;;;;;;;;;;;;;;17.22;27.49;95563.25;5085442;28;19997;-85
2023/12/22 21:10:59;;;;;;;;;;;;;;;17.77;25.20;95563.72;5095092;28;19958;-85
2023/12/22 21:13:26;;;;;;;;;;;;;;;17.84;25.51;95567.00;5096656;28;20407;-84
2023/12/22 21:15:52;;;;;;;;;;;;;;;17.90;27.62;95553.28;5099324;28;20458;-85
2023/12/22 21:18:18;;;;;;;;;;;;;;;17.59;25.96;95569.91;5095137;28;19931;-85
2023/12/22 21:20:44;;;;;;;;;;;;;;;18.27;26.46;95573.72;5094564;28;19934;-84
2023/12/22 21:23:10;;;;;;;;;;;;;;;16.82;26.68;95576.13;5097843;28;19923;-86
2023/12/22 21:25:36;;;;;;;;;;;;;;;17.35;26.04;95577.06;5096388;27;19927;-85
2023/12/22 21:28:02;;;;;;;;;;;;;;;17.35;26.39;95573.53;5093765;28;20018;-84
2023/12/22 21:30:29;;;;;;;;;;;;;;;17.03;26.02;95569.88;5095687;28;20046;-85
2023/12/22 21:32:55;;;;;;;;;;;;;;;18.13;24.69;95580.59;5094450;27;19924;-85
2023/12/22 21:35:21;;;;;;;;;;;;;;;17.93;24.61;95582.94;5093639;28;19927;-85
2023/12/22 21:37:47;;;;;;;;;;;;;;;18.25;25.33;95590.06;5096962;28;20280;-86
2023/12/22 21:40:13;;;;;;;;;;;;;;;18.97;23.21;95595.16;5098452;28;20018;-84
2023/12/22 21:42:39;;;;;;;;;;;;;;;16.67;26.03;95599.16;5096812;28;19923;-84
2023/12/22 21:45:06;;;;;;;;;;;;;;;16.79;25.78;95598.38;5096805;28;20598;-85
2023/12/22 21:47:32;;;;;;;;;;;;;;;18.22;24.17;95597.31;5096880;28;19963;-85
2023/12/22 21:49:58;;;;;;;;;;;;;;;17.26;27.05;95597.19;5094979;28;20688;-85
2023/12/22 21:52:24;;;;;;;;;;;;;;;17.18;24.91;95590.31;5096703;28;19927;-86
2023/12/22 21:54:51;;;;;;;;;;;;;;;17.77;24.85;95600.56;5095820;28;19920;-85
2023/12/22 21:57:17;;;;;;;;;;;;;;;18.01;24.24;95586.22;5096446;28;19924;-85
2023/12/22 21:59:43;;;;;;;;;;;;;;;18.36;23.24;95585.66;5097258;28;19935;-84
2023/12/22 22:02:09;;;;;;;;;;;;;;;20.09;21.56;95585.94;5096548;27;19931;-84
2023/12/22 22:04:35;;;;;;;;;;;;;;;18.00;26.31;95588.22;5096852;28;19923;-86
2023/12/22 22:07:01;;;;;;;;;;;;;;;18.68;23.41;95594.75;5097335;28;20423;-85
2023/12/22 22:09:27;;;;;;;;;;;;;;;18.53;23.47;95600.09;5096022;28;19924;-84
2023/12/22 22:11:53;;;;;;;;;;;;;;;17.65;24.47;95589.50;5097162;28;19927;-85
2023/12/22 22:14:19;;;;;;;;;;;;;;;17.63;25.38;95589.97;5097325;28;19934;-86
2023/12/22 22:16:45;;;;;;;;;;;;;;;18.53;23.26;95594.53;5093830;28;19924;-85
2023/12/22 22:19:11;;;;;;;;;;;;;;;19.82;21.82;95570.03;5097549;28;20294;-85
2023/12/22 22:21:37;;;;;;;;;;;;;;;19.36;23.65;95576.84;5097420;28;19927;-85
2023/12/22 22:24:04;;;;;;;;;;;;;;;18.91;24.80;95572.75;5096126;28;20042;-86
2023/12/22 22:26:32;;;;;;;;;;;;;;;20.14;21.87;95560.25;5098150;28;19957;-84
2023/12/22 22:28:58;;;;;;;;;;;;;;;19.56;22.80;95552.91;5096849;28;20065;-85
2023/12/22 22:31:24;;;;;;;;;;;;;;;19.58;22.71;95552.44;5097721;28;19927;-83
2023/12/22 22:33:50;;;;;;;;;;;;;;;18.57;23.55;95525.72;5097647;28;19919;-85
2023/12/22 22:36:16;;;;;;;;;;;;;;;17.80;26.16;95535.06;5099249;28;20501;-85
2023/12/22 22:38:42;;;;;;;;;;;;;;;16.84;26.93;95565.38;5102540;27;19915;-85
2023/12/22 22:41:09;;;;;;;;;;;;;;;17.00;30.15;95562.44;5103178;28;20049;-85
2023/12/22 22:43:36;;;;;;;;;;;;;;;19.51;22.56;95561.13;5089756;28;19928;-86
2023/12/22 22:46:02;;;;;;;;;;;;;;;19.29;22.62;95572.34;5103039;28;20371;-86
2023/12/22 22:48:28;;;;;;;;;;;;;;;19.78;22.31;95559.09;5101907;28;19920;-86
2023/12/22 22:50:54;;;;;;;;;;;;;;;18.98;24.21;95566.09;5083829;28;24902;-86
2023/12/22 22:53:20;;;;;;;;;;;;;;;18.13;25.25;95568.72;5102859;28;20394;-86
2023/12/22 22:55:47;;;;;;;;;;;;;;;18.46;25.35;95580.94;5099879;27;19950;-86
2023/12/22 22:58:13;;;;;;;;;;;;;;;17.95;26.08;95572.13;5099321;27;20398;-86
2023/12/22 23:00:41;;;;;;;;;;;;;;;17.58;26.80;95573.13;5102066;27;19926;-84
2023/12/22 23:03:07;;;;;;;;;;;;;;;18.43;24.05;95568.72;5099780;27;19966;-85
2023/12/22 23:05:35;;;;;;;;;;;;;;;19.73;22.65;95556.13;5098664;28;19920;-85
2023/12/22 23:08:01;;;;;;;;;;;;;;;19.60;22.92;95556.31;5100831;28;19970;-86
2023/12/22 23:10:27;;;;;;;;;;;;;;;18.97;23.90;95573.69;5101355;28;19928;-86
2023/12/22 23:12:53;;;;;;;;;;;;;;;20.46;22.18;95565.91;5101015;27;19920;-85
2023/12/22 23:15:19;;;;;;;;;;;;;;;21.49;21.18;95558.84;5102484;28;19931;-85
2023/12/22 23:17:45;;;;;;;;;;;;;;;20.37;22.10;95565.16;5103044;27;20474;-85
2023/12/22 23:20:11;;;;;;;;;;;;;;;19.23;22.47;95538.78;5100534;28;19994;-85
2023/12/22 23:22:37;;;;;;;;;;;;;;;18.11;24.71;95568.41;5099894;27;20034;-85
2023/12/22 23:25:04;;;;;;;;;;;;;;;18.21;24.04;95556.09;5100580;27;19943;-85
2023/12/22 23:27:30;;;;;;;;;;;;;;;17.86;26.09;95567.31;5101470;28;19931;-85
2023/12/22 23:29:56;;;;;;;;;;;;;;;18.64;23.45;95583.78;5101963;27;19920;-85
2023/12/22 23:32:22;;;;;;;;;;;;;;;18.17;24.13;95577.69;5102100;27;19959;-85
2023/12/22 23:34:48;;;;;;;;;;;;;;;17.76;25.54;95599.00;5100519;27;20363;-86
2023/12/22 23:37:14;;;;;;;;;;;;;;;17.72;24.22;95590.03;5101152;27;19919;-86
2023/12/22 23:39:40;;;;;;;;;;;;;;;17.52;29.61;95613.78;5099449;28;19915;-87
2023/12/22 23:42:06;;;;;;;;;;;;;;;17.76;24.36;95595.47;5099356;27;19942;-85
2023/12/22 23:44:32;;;;;;;;;;;;;;;17.80;24.59;95591.34;5101125;28;19955;-85
2023/12/22 23:46:58;;;;;;;;;;;;;;;18.50;25.56;95599.03;5099571;27;20376;-86
2023/12/22 23:49:24;;;;;;;;;;;;;;;18.44;24.28;95588.91;5100944;28;19984;-86
2023/12/22 23:51:50;;;;;;;;;;;;;;;17.23;28.89;95591.75;5102813;27;19916;-86
2023/12/22 23:54:15;;;;;;;;;;;;;;;17.51;24.58;95596.34;5096738;28;19928;-85
2023/12/22 23:56:42;;;;;;;;;;;;;;;16.59;26.39;95595.88;5099298;27;19920;-86
2023/12/22 23:59:08;;;;;;;;;;;;;;;16.62;25.75;95586.66;5101835;28;19916;-86
